createdAt,value
2018-07-23T00:01:11.084Z,101003.34
2018-07-23T00:03:37.087Z,100997.13
2018-07-23T00:06:03.112Z,100997.01
2018-07-23T00:08:29.131Z,100993.00
2018-07-23T00:10:55.179Z,100999.28
2018-07-23T00:13:21.177Z,101000.39
2018-07-23T00:15:47.187Z,101003.15
2018-07-23T00:18:13.288Z,101006.89
2018-07-23T00:20:39.287Z,101010.13
2018-07-23T00:23:05.350Z,101008.59
2018-07-23T00:25:31.370Z,101014.58
2018-07-23T00:27:57.395Z,101009.64
2018-07-23T00:30:23.414Z,101015.17
2018-07-23T00:32:49.424Z,101007.34
2018-07-23T00:35:15.435Z,101012.89
2018-07-23T00:37:41.447Z,101012.39
2018-07-23T00:40:07.478Z,101006.61
2018-07-23T00:42:33.523Z,101009.55
2018-07-23T00:44:59.554Z,101006.84
2018-07-23T00:47:25.587Z,101005.47
2018-07-23T00:49:51.590Z,101010.09
2018-07-23T00:52:17.617Z,101011.36
2018-07-23T00:54:43.617Z,101013.81
2018-07-23T00:57:09.644Z,101006.92
2018-07-23T00:59:35.663Z,101009.86
2018-07-23T01:02:01.703Z,101011.03
2018-07-23T01:04:27.861Z,101009.18
2018-07-23T01:06:53.903Z,101011.67
2018-07-23T01:09:19.941Z,101013.27
2018-07-23T01:11:46.031Z,101010.60
2018-07-23T01:14:12.063Z,101011.35
2018-07-23T01:16:38.083Z,101013.84
2018-07-23T01:19:04.119Z,101016.00
2018-07-23T01:21:30.133Z,101015.19
2018-07-23T01:23:56.172Z,101011.35
2018-07-23T01:26:22.219Z,101013.93
2018-07-23T01:28:48.264Z,101016.99
2018-07-23T01:31:14.285Z,101013.06
2018-07-23T01:33:40.295Z,101012.70
2018-07-23T01:36:06.336Z,101011.35
2018-07-23T01:38:32.338Z,101020.02
2018-07-23T01:40:58.351Z,101011.20
2018-07-23T01:43:24.343Z,101016.78
2018-07-23T01:45:50.338Z,101017.95
2018-07-23T01:48:16.350Z,101020.51
2018-07-23T01:50:42.389Z,101019.09
2018-07-23T01:53:08.385Z,101025.03
2018-07-23T01:55:34.521Z,101019.00
2018-07-23T01:58:00.513Z,101017.66
2018-07-23T02:00:26.524Z,101020.92
2018-07-23T02:02:52.562Z,101018.08
2018-07-23T02:05:18.583Z,101020.50
2018-07-23T02:07:44.590Z,101023.62
2018-07-23T02:10:10.583Z,101018.46
2018-07-23T02:12:36.591Z,101025.45
2018-07-23T02:15:02.701Z,101021.16
2018-07-23T02:17:28.718Z,101017.74
2018-07-23T02:19:54.823Z,101020.51
2018-07-23T02:22:20.838Z,101026.95
2018-07-23T02:24:46.868Z,101024.10
2018-07-23T02:27:12.898Z,101026.89
2018-07-23T02:29:39.045Z,101022.38
2018-07-23T02:32:05.082Z,101020.85
2018-07-23T02:34:31.103Z,101024.45
2018-07-23T02:36:57.109Z,101025.44
2018-07-23T02:39:23.128Z,101025.12
2018-07-23T02:41:49.146Z,101029.63
2018-07-23T02:44:15.163Z,101032.48
2018-07-23T02:46:41.198Z,101025.36
2018-07-23T02:49:07.249Z,101030.78
2018-07-23T02:51:33.285Z,101030.23
2018-07-23T02:53:59.395Z,101032.22
2018-07-23T02:56:25.440Z,101035.92
2018-07-23T02:58:51.544Z,101037.14
2018-07-23T03:01:17.559Z,101038.67
2018-07-23T03:03:43.571Z,101037.44
2018-07-23T03:06:09.601Z,101040.52
2018-07-23T03:08:35.629Z,101037.98
2018-07-23T03:11:01.639Z,101038.36
2018-07-23T03:13:27.687Z,101039.78
2018-07-23T03:15:53.709Z,101038.48
2018-07-23T03:18:19.746Z,101045.42
2018-07-23T03:20:45.798Z,101047.53
2018-07-23T03:23:11.845Z,101044.08
2018-07-23T03:25:37.874Z,101042.66
2018-07-23T03:28:03.892Z,101049.98
2018-07-23T03:30:29.969Z,101054.60
2018-07-23T03:32:56.072Z,101050.48
2018-07-23T03:35:22.098Z,101058.47
2018-07-23T03:37:48.096Z,101063.05
2018-07-23T03:40:14.381Z,101065.86
2018-07-23T03:42:40.391Z,101060.89
2018-07-23T03:45:06.437Z,101062.72
2018-07-23T03:47:32.455Z,101068.53
2018-07-23T03:49:58.500Z,101067.09
2018-07-23T03:52:24.537Z,101069.36
2018-07-23T03:54:50.570Z,101070.00
2018-07-23T03:57:16.578Z,101073.66
2018-07-23T03:59:42.595Z,101084.14
2018-07-23T04:02:08.611Z,101082.22
2018-07-23T04:04:34.630Z,101085.58
2018-07-23T04:07:00.689Z,101089.09
2018-07-23T04:09:26.725Z,101095.57
2018-07-23T04:11:52.740Z,101092.55
2018-07-23T04:14:18.739Z,101089.03
2018-07-23T04:16:44.758Z,101092.39
2018-07-23T04:19:10.790Z,101091.33
2018-07-23T04:21:36.846Z,101090.76
2018-07-23T04:24:02.883Z,101094.06
2018-07-23T04:26:28.955Z,101098.70
2018-07-23T04:28:54.988Z,101091.32
2018-07-23T04:31:21.010Z,101088.66
2018-07-23T04:33:47.014Z,101097.61
2018-07-23T04:36:13.031Z,101099.71
2018-07-23T04:38:39.024Z,101107.45
2018-07-23T04:41:05.088Z,101102.16
2018-07-23T04:43:31.101Z,101104.74
2018-07-23T04:45:57.115Z,101106.39
2018-07-23T04:48:23.120Z,101111.61
2018-07-23T04:50:49.138Z,101112.00
2018-07-23T04:53:15.188Z,101109.84
2018-07-23T04:55:46.286Z,101103.39
2018-07-23T04:58:12.318Z,101106.03
2018-07-23T05:00:38.357Z,101109.16
2018-07-23T05:03:04.392Z,101107.94
2018-07-23T05:05:30.419Z,101110.96
2018-07-23T05:07:56.411Z,101113.31
2018-07-23T05:10:22.418Z,101111.76
2018-07-23T05:12:48.459Z,101109.30
2018-07-23T05:15:14.821Z,101107.39
2018-07-23T05:17:40.858Z,101118.86
2018-07-23T05:20:06.883Z,101119.22
2018-07-23T05:22:32.908Z,101116.19
2018-07-23T05:24:58.934Z,101116.54
2018-07-23T05:27:24.971Z,101115.47
2018-07-23T05:29:51.358Z,101115.59
2018-07-23T05:32:17.679Z,101116.48
2018-07-23T05:34:43.676Z,101112.63
2018-07-23T05:37:09.701Z,101110.25
2018-07-23T05:39:35.741Z,101110.97
2018-07-23T05:42:01.811Z,101107.34
2018-07-23T05:44:27.842Z,101109.25
2018-07-23T05:46:53.880Z,101111.48
2018-07-23T05:49:19.900Z,101111.11
2018-07-23T05:51:45.924Z,101112.09
2018-07-23T05:54:11.961Z,101107.52
2018-07-23T05:56:38.065Z,101107.32
2018-07-23T05:59:04.225Z,101108.31
2018-07-23T06:01:30.367Z,101108.96
2018-07-23T06:03:56.607Z,101117.84
2018-07-23T06:06:23.073Z,101114.58
2018-07-23T06:08:49.512Z,101119.00
2018-07-23T06:11:15.569Z,101117.98
2018-07-23T06:13:41.633Z,101117.34
2018-07-23T06:16:07.692Z,101117.55
2018-07-23T06:18:33.787Z,101122.51
2018-07-23T06:20:59.823Z,101127.09
2018-07-23T06:23:26.035Z,101118.72
2018-07-23T06:25:52.493Z,101116.77
2018-07-23T06:28:18.974Z,101115.62
2018-07-23T06:30:45.232Z,101117.97
2018-07-23T06:33:11.334Z,101119.36
2018-07-23T06:35:37.381Z,101119.07
2018-07-23T06:38:04.073Z,101120.23
2018-07-23T06:40:30.188Z,101116.14
2018-07-23T06:42:56.268Z,101125.39
2018-07-23T06:45:22.335Z,101123.85
2018-07-23T06:47:48.436Z,101127.06
2018-07-23T06:50:14.455Z,101127.23
2018-07-23T06:52:40.491Z,101124.77
2018-07-23T06:55:06.854Z,101129.28
2018-07-23T06:57:33.184Z,101133.38
2018-07-23T06:59:59.225Z,101130.95
2018-07-23T07:02:25.266Z,101132.84
2018-07-23T07:04:51.280Z,101135.56
2018-07-23T07:07:17.318Z,101129.23
2018-07-23T07:09:43.337Z,101132.02
2018-07-23T07:12:09.366Z,101137.34
2018-07-23T07:14:35.379Z,101141.89
2018-07-23T07:17:01.374Z,101137.32
2018-07-23T07:19:27.387Z,101133.56
2018-07-23T07:21:53.423Z,101132.84
2018-07-23T07:24:19.466Z,101134.28
2018-07-23T07:26:45.487Z,101138.34
2018-07-23T07:29:11.528Z,101146.28
2018-07-23T07:31:37.540Z,101134.72
2018-07-23T07:34:03.571Z,101125.31
2018-07-23T07:36:29.612Z,101132.41
2018-07-23T07:38:55.633Z,101128.98
2018-07-23T07:41:21.669Z,101131.28
2018-07-23T07:43:47.669Z,101133.13
2018-07-23T07:46:13.801Z,101126.31
2018-07-23T07:48:39.823Z,101126.37
2018-07-23T07:51:05.849Z,101128.19
2018-07-23T07:53:31.947Z,101126.50
2018-07-23T07:55:58.232Z,101130.05
2018-07-23T07:58:24.557Z,101124.03
2018-07-23T08:00:50.615Z,101127.61
2018-07-23T08:03:16.932Z,101121.13
2018-07-23T08:05:42.968Z,101121.63
2018-07-23T08:08:08.996Z,101118.19
2018-07-23T08:10:35.060Z,101120.84
2018-07-23T08:13:01.089Z,101120.94
2018-07-23T08:15:27.106Z,101123.17
2018-07-23T08:17:53.175Z,101121.97
2018-07-23T08:20:19.195Z,101119.45
2018-07-23T08:22:45.259Z,101123.90
2018-07-23T08:25:11.342Z,101115.77
2018-07-23T08:27:37.378Z,101117.61
2018-07-23T08:30:03.441Z,101121.10
2018-07-23T08:32:29.759Z,101118.13
2018-07-23T08:34:55.954Z,101124.31
2018-07-23T08:37:22.093Z,101125.69
2018-07-23T08:39:48.451Z,101121.47
2018-07-23T08:42:14.574Z,101117.18
2018-07-23T08:44:40.692Z,101122.08
2018-07-23T08:47:06.843Z,101130.39
2018-07-23T08:49:32.914Z,101132.20
2018-07-23T08:51:59.082Z,101131.30
2018-07-23T08:54:25.178Z,101134.77
2018-07-23T08:56:51.220Z,101131.83
2018-07-23T08:59:17.344Z,101131.84
2018-07-23T09:01:43.976Z,101130.12
2018-07-23T09:04:10.113Z,101124.05
2018-07-23T09:06:36.291Z,101128.45
2018-07-23T09:09:02.533Z,101124.14
2018-07-23T09:11:28.859Z,101120.28
2018-07-23T09:13:54.934Z,101122.47
2018-07-23T09:16:21.729Z,101119.88
2018-07-23T09:18:47.799Z,101124.69
2018-07-23T09:21:13.893Z,101125.97
2018-07-23T09:23:40.062Z,101129.91
2018-07-23T09:26:06.290Z,101123.42
2018-07-23T09:28:33.394Z,101130.38
2018-07-23T09:30:59.672Z,101130.81
2018-07-23T09:35:57.614Z,101128.27
2018-07-23T09:38:23.941Z,101128.28
2018-07-23T09:40:50.017Z,101126.53
2018-07-23T09:43:16.503Z,101117.38
2018-07-23T09:45:42.599Z,101120.84
2018-07-23T09:48:08.756Z,101129.56
2018-07-23T09:50:34.921Z,101120.85
2018-07-23T09:53:00.978Z,101112.99
2018-07-23T09:55:27.088Z,101118.65
2018-07-23T09:57:53.244Z,101118.65
2018-07-23T10:00:20.927Z,101116.89
2018-07-23T10:02:47.268Z,101116.47
2018-07-23T10:05:13.681Z,101110.32
2018-07-23T10:07:39.752Z,101109.84
2018-07-23T10:12:37.374Z,101108.02
2018-07-23T10:15:03.673Z,101108.42
2018-07-23T10:17:30.436Z,101109.77
2018-07-23T10:19:56.752Z,101109.75
2018-07-23T10:22:23.006Z,101111.07
2018-07-23T10:24:49.115Z,101109.31
2018-07-23T10:27:15.537Z,101110.63
2018-07-23T10:29:41.778Z,101104.87
2018-07-23T10:32:08.311Z,101109.22
2018-07-23T10:37:06.825Z,101103.83
2018-07-23T10:39:32.921Z,101102.84
2018-07-23T10:41:59.084Z,101099.30
2018-07-23T10:49:33.731Z,101090.42
2018-07-23T10:51:59.828Z,101098.74
2018-07-23T10:54:26.284Z,101096.67
2018-07-23T10:56:52.485Z,101098.34
2018-07-23T10:59:22.668Z,101093.51
2018-07-23T11:01:48.774Z,101091.67
2018-07-23T11:04:14.888Z,101091.97
2018-07-23T11:06:41.532Z,101090.55
2018-07-23T11:09:07.941Z,101095.25
2018-07-23T11:11:34.286Z,101088.55
2018-07-23T11:14:00.420Z,101087.06
2018-07-23T11:16:26.742Z,101087.41
2018-07-23T11:18:52.962Z,101081.77
2018-07-23T11:21:19.001Z,101076.02
2018-07-23T11:23:45.059Z,101085.08
2018-07-23T11:26:11.110Z,101082.71
2018-07-23T11:28:37.440Z,101085.72
2018-07-23T11:31:03.541Z,101084.55
2018-07-23T11:33:29.602Z,101082.30
2018-07-23T11:36:04.863Z,101087.41
2018-07-23T11:38:31.179Z,101091.97
2018-07-23T11:40:57.566Z,101084.00
2018-07-23T11:44:43.934Z,101084.84
2018-07-23T11:47:10.809Z,101073.12
2018-07-23T11:49:36.913Z,101075.94
2018-07-23T11:52:03.110Z,101076.53
2018-07-23T11:54:29.451Z,101071.14
2018-07-23T11:56:58.974Z,101078.16
2018-07-23T11:59:25.172Z,101078.20
2018-07-23T12:01:51.686Z,101078.66
2018-07-23T12:04:17.836Z,101081.09
2018-07-23T12:06:44.052Z,101076.11
2018-07-23T12:09:11.934Z,101073.39
2018-07-23T12:11:38.247Z,101076.39
2018-07-23T12:14:04.399Z,101065.01
2018-07-23T12:16:30.515Z,101064.61
2018-07-23T12:18:56.584Z,101056.91
2018-07-23T12:21:22.684Z,101057.42
2018-07-23T12:23:48.778Z,101055.17
2018-07-23T12:26:15.144Z,101056.44
2018-07-23T12:28:41.321Z,101055.05
2018-07-23T12:31:07.422Z,101059.02
2018-07-23T12:33:33.441Z,101069.64
2018-07-23T12:35:59.650Z,101058.69
2018-07-23T12:38:25.763Z,101060.86
2018-07-23T12:40:51.981Z,101068.38
2018-07-23T12:43:18.339Z,101063.28
2018-07-23T12:45:44.428Z,101050.19
2018-07-23T12:48:10.807Z,101053.30
2018-07-23T12:50:37.286Z,101051.75
2018-07-23T12:53:03.328Z,101054.09
2018-07-23T12:55:29.408Z,101052.12
2018-07-23T12:57:55.471Z,101049.50
2018-07-23T13:02:58.885Z,101049.91
2018-07-23T13:05:25.020Z,101056.59
2018-07-23T13:07:51.161Z,101051.00
2018-07-23T13:10:17.238Z,101055.45
2018-07-23T13:12:43.240Z,101049.05
2018-07-23T13:15:09.856Z,101063.55
2018-07-23T13:17:35.981Z,101057.33
2018-07-23T13:20:02.076Z,101052.17
2018-07-23T13:22:28.100Z,101052.38
2018-07-23T13:24:54.444Z,101046.00
2018-07-23T13:27:20.525Z,101048.77
2018-07-23T13:29:46.563Z,101045.66
2018-07-23T13:32:12.764Z,101048.14
2018-07-23T13:34:38.782Z,101050.12
2018-07-23T13:37:04.809Z,101049.17
2018-07-23T13:39:31.002Z,101049.56
2018-07-23T13:41:57.015Z,101046.64
2018-07-23T13:44:23.099Z,101047.89
2018-07-23T13:46:49.458Z,101037.34
2018-07-23T13:49:15.671Z,101040.67
2018-07-23T13:51:41.728Z,101037.10
2018-07-23T13:54:07.800Z,101039.82
2018-07-23T13:56:33.990Z,101040.17
2018-07-23T13:59:00.272Z,101037.06
2018-07-23T14:01:26.636Z,101034.98
2018-07-23T14:03:52.646Z,101029.28
2018-07-23T14:06:18.979Z,101034.76
2018-07-23T14:08:45.078Z,101029.08
2018-07-23T14:11:11.259Z,101025.03
2018-07-23T14:13:37.301Z,101022.96
2018-07-23T14:16:03.455Z,101018.74
2018-07-23T14:18:29.491Z,101020.39
2018-07-23T14:20:55.582Z,101016.26
2018-07-23T14:23:21.660Z,101017.20
2018-07-23T14:25:47.725Z,101011.09
2018-07-23T14:28:13.753Z,101011.53
2018-07-23T14:30:39.968Z,101013.74
2018-07-23T14:33:06.387Z,101007.86
2018-07-23T14:38:06.478Z,101008.49
2018-07-23T14:40:32.926Z,101004.70
2018-07-23T14:42:59.036Z,101005.66
2018-07-23T14:45:25.251Z,101002.47
2018-07-23T14:47:51.494Z,100998.88
2018-07-23T14:50:18.740Z,101005.38
2018-07-23T14:52:45.285Z,100991.98
2018-07-23T14:55:11.586Z,100996.77
2018-07-23T14:57:52.952Z,100993.66
2018-07-23T15:01:09.871Z,100987.08
2018-07-23T15:03:36.131Z,100989.78
2018-07-23T15:06:02.169Z,100980.63
2018-07-23T15:08:28.583Z,100975.84
2018-07-23T15:10:55.718Z,100976.93
2018-07-23T15:13:22.756Z,100977.58
2018-07-23T15:15:48.792Z,100973.47
2018-07-23T15:18:15.120Z,100975.30
2018-07-23T15:20:41.128Z,100977.88
2018-07-23T15:23:07.283Z,100982.63
2018-07-23T15:25:33.577Z,100980.97
2018-07-23T15:27:59.696Z,100982.77
2018-07-23T15:30:26.098Z,100972.06
2018-07-23T15:32:52.603Z,100972.19
2018-07-23T15:35:18.620Z,100966.71
2018-07-23T15:37:44.667Z,100974.05
2018-07-23T15:40:10.946Z,100972.91
2018-07-23T15:42:37.416Z,100973.13
2018-07-23T15:45:03.594Z,100968.89
2018-07-23T15:47:29.630Z,100958.02
2018-07-23T15:49:56.093Z,100953.52
2018-07-23T15:52:22.481Z,100965.27
2018-07-23T15:54:48.526Z,100958.68
2018-07-23T15:57:16.684Z,100953.96
2018-07-23T15:59:42.793Z,100952.14
2018-07-23T16:02:08.908Z,100955.95
2018-07-23T16:04:35.280Z,100958.06
2018-07-23T16:07:01.436Z,100957.03
2018-07-23T16:09:27.474Z,100961.63
2018-07-23T16:11:53.748Z,100959.11
2018-07-23T16:14:20.090Z,100950.76
2018-07-23T16:16:46.431Z,100953.36
2018-07-23T16:19:12.500Z,100954.83
2018-07-23T16:21:38.511Z,100948.97
2018-07-23T16:24:04.531Z,100942.80
2018-07-23T16:26:30.585Z,100940.92
2018-07-23T16:28:56.617Z,100941.00
2018-07-23T16:31:22.708Z,100934.05
2018-07-23T16:33:48.736Z,100933.66
2018-07-23T16:36:15.126Z,100931.58
2018-07-23T16:38:41.448Z,100934.50
2018-07-23T16:41:07.489Z,100927.79
2018-07-23T16:43:33.948Z,100930.62
2018-07-23T16:48:32.741Z,100932.84
2018-07-23T16:50:59.034Z,100931.30
2018-07-23T16:53:25.408Z,100936.42
2018-07-23T16:55:52.510Z,100932.51
2018-07-23T16:58:18.527Z,100932.10
2018-07-23T17:00:44.903Z,100934.81
2018-07-23T17:03:10.947Z,100931.34
2018-07-23T17:05:37.276Z,100932.18
2018-07-23T17:08:03.391Z,100928.25
2018-07-23T17:10:29.781Z,100927.19
2018-07-23T17:12:55.932Z,100925.70
2018-07-23T17:15:22.250Z,100933.06
2018-07-23T17:17:48.388Z,100933.73
2018-07-23T17:20:14.431Z,100925.91
2018-07-23T17:22:40.459Z,100922.09
2018-07-23T17:25:06.681Z,100925.92
2018-07-23T17:27:32.684Z,100924.39
2018-07-23T17:29:58.963Z,100926.00
2018-07-23T17:32:25.144Z,100930.52
2018-07-23T17:34:51.516Z,100923.92
2018-07-23T17:37:17.640Z,100926.75
2018-07-23T17:39:44.561Z,100925.20
2018-07-23T17:42:10.731Z,100930.52
2018-07-23T17:44:36.790Z,100930.88
2018-07-23T17:47:03.089Z,100934.23
2018-07-23T17:49:29.602Z,100930.11
2018-07-23T17:51:55.892Z,100941.82
2018-07-23T17:54:21.971Z,100940.34
2018-07-23T17:56:48.093Z,100930.44
2018-07-23T17:59:14.468Z,100937.25
2018-07-23T18:01:40.674Z,100934.85
2018-07-23T18:04:06.768Z,100930.98
2018-07-23T18:06:32.778Z,100926.22
2018-07-23T18:08:58.828Z,100928.80
2018-07-23T18:11:24.891Z,100926.05
2018-07-23T18:13:50.926Z,100929.20
2018-07-23T18:16:16.953Z,100932.53
2018-07-23T18:18:43.030Z,100932.91
2018-07-23T18:21:09.246Z,100925.56
2018-07-23T18:23:35.257Z,100925.76
2018-07-23T18:26:01.376Z,100929.45
2018-07-23T18:28:27.508Z,100927.14
2018-07-23T18:30:53.863Z,100929.69
2018-07-23T18:33:19.938Z,100927.52
2018-07-23T18:35:46.614Z,100925.75
2018-07-23T18:38:12.938Z,100922.47
2018-07-23T18:40:39.116Z,100918.64
2018-07-23T18:43:05.310Z,100927.86
2018-07-23T18:45:31.572Z,100930.46
2018-07-23T18:47:57.687Z,100931.07
2018-07-23T18:50:27.909Z,100925.53
2018-07-23T18:52:54.275Z,100924.75
2018-07-23T18:58:02.738Z,100930.48
2018-07-23T19:00:28.775Z,100929.80
2018-07-23T19:02:54.871Z,100930.00
2018-07-23T19:05:20.910Z,100928.28
2018-07-23T19:07:46.995Z,100936.33
2018-07-23T19:10:13.060Z,100937.70
2018-07-23T19:12:39.080Z,100948.60
2018-07-23T19:15:05.115Z,100941.48
2018-07-23T19:17:31.474Z,100939.56
2018-07-23T19:19:57.483Z,100942.35
2018-07-23T19:22:23.509Z,100946.02
2018-07-23T19:24:49.545Z,100945.70
2018-07-23T19:27:15.668Z,100958.48
2018-07-23T19:29:41.590Z,100956.82
2018-07-23T19:32:07.631Z,100957.75
2018-07-23T19:34:33.686Z,100959.98
2018-07-23T19:36:59.716Z,100962.66
2018-07-23T19:39:25.725Z,100967.05
2018-07-23T19:41:52.157Z,100968.34
2018-07-23T19:44:18.171Z,100963.53
2018-07-23T19:46:44.529Z,100966.14
2018-07-23T19:49:10.559Z,100968.33
2018-07-23T19:51:36.616Z,100970.04
2018-07-23T19:54:02.666Z,100970.42
2018-07-23T19:56:28.703Z,100976.06
2018-07-23T19:58:54.740Z,100971.64
2018-07-23T20:01:20.780Z,100976.41
2018-07-23T20:03:47.147Z,100974.62
2018-07-23T20:06:13.447Z,100979.36
2018-07-23T20:08:39.909Z,100973.61
2018-07-23T20:11:06.313Z,100980.96
2018-07-23T20:13:32.408Z,100979.18
2018-07-23T20:15:58.453Z,100977.80
2018-07-23T20:18:24.528Z,100977.74
2018-07-23T20:20:50.987Z,100977.68
2018-07-23T20:23:17.364Z,100970.66
2018-07-23T20:25:43.470Z,100975.84
2018-07-23T20:28:09.814Z,100971.00
2018-07-23T20:30:36.662Z,100969.14
2018-07-23T20:33:03.136Z,100975.61
2018-07-23T20:35:29.125Z,100972.98
2018-07-23T20:37:55.186Z,100976.39
2018-07-23T20:40:21.223Z,100977.21
2018-07-23T20:42:47.216Z,100973.66
2018-07-23T20:45:13.226Z,100972.25
2018-07-23T20:47:39.240Z,100973.91
2018-07-23T20:50:05.250Z,100973.39
2018-07-23T20:52:31.284Z,100979.81
2018-07-23T20:54:57.317Z,100978.36
2018-07-23T20:57:23.535Z,100978.27
2018-07-23T20:59:49.547Z,100975.56
2018-07-23T21:02:15.558Z,100979.00
2018-07-23T21:04:41.566Z,100972.80
2018-07-23T21:07:07.599Z,100968.37
2018-07-23T21:09:33.606Z,100969.94
2018-07-23T21:11:59.659Z,100978.45
2018-07-23T21:14:25.647Z,100971.47
2018-07-23T21:16:51.656Z,100973.58
2018-07-23T21:19:17.657Z,100973.95
2018-07-23T21:21:43.678Z,100976.48
2018-07-23T21:24:09.695Z,100977.77
2018-07-23T21:26:35.705Z,100975.16
2018-07-23T21:29:01.733Z,100979.36
2018-07-23T21:31:27.750Z,100981.97
2018-07-23T21:33:53.881Z,100991.03
2018-07-23T21:36:19.897Z,100990.47
2018-07-23T21:38:46.237Z,100988.30
2018-07-23T21:41:12.251Z,100987.88
2018-07-23T21:43:38.263Z,100986.54
2018-07-23T21:46:04.269Z,100993.44
2018-07-23T21:48:30.355Z,100988.08
2018-07-23T21:50:56.363Z,100991.87
2018-07-23T21:53:22.384Z,100993.53
2018-07-23T21:55:48.414Z,100986.97
2018-07-23T21:58:14.423Z,100993.32
2018-07-23T22:00:40.475Z,100994.08
2018-07-23T22:03:06.471Z,100994.01
2018-07-23T22:05:32.464Z,100993.97
2018-07-23T22:07:58.466Z,100997.79
2018-07-23T22:10:24.502Z,100995.88
2018-07-23T22:12:50.544Z,100999.19
2018-07-23T22:15:16.558Z,100999.97
2018-07-23T22:17:42.844Z,100997.77
2018-07-23T22:20:08.854Z,100997.30
2018-07-23T22:22:34.839Z,101000.33
2018-07-23T22:25:00.824Z,101001.55
2018-07-23T22:27:26.837Z,101003.63
2018-07-23T22:29:52.849Z,101004.84
2018-07-23T22:32:18.837Z,101000.88
2018-07-23T22:34:44.868Z,100995.56
2018-07-23T22:37:10.881Z,100996.77
2018-07-23T22:39:36.885Z,100997.09
2018-07-23T22:42:02.929Z,100996.95
2018-07-23T22:44:28.923Z,100992.08
2018-07-23T22:46:54.950Z,100992.38
2018-07-23T22:49:20.961Z,100994.41
2018-07-23T22:51:46.989Z,100988.27
2018-07-23T22:54:13.046Z,100987.37
2018-07-23T22:56:39.051Z,100992.89
2018-07-23T22:59:05.039Z,100991.45
2018-07-23T23:01:31.070Z,100991.77
2018-07-23T23:04:34.203Z,100991.58
2018-07-23T23:07:00.200Z,100992.36
2018-07-23T23:09:26.205Z,100991.05
2018-07-23T23:11:52.211Z,100987.08
2018-07-23T23:14:18.233Z,100986.03
2018-07-23T23:16:44.246Z,100988.95
2018-07-23T23:19:10.258Z,100984.59
2018-07-23T23:21:36.244Z,100983.23
2018-07-23T23:24:02.260Z,100980.90
2018-07-23T23:26:28.289Z,100980.89
2018-07-23T23:28:54.317Z,100982.04
2018-07-23T23:31:20.346Z,100975.81
2018-07-23T23:33:46.364Z,100975.33
2018-07-23T23:36:14.398Z,100979.97
2018-07-23T23:38:40.423Z,100975.65
2018-07-23T23:41:06.425Z,100973.92
2018-07-23T23:43:32.444Z,100973.06
2018-07-23T23:45:58.435Z,100974.69
2018-07-23T23:48:24.439Z,100975.02
2018-07-23T23:50:50.470Z,100972.70
2018-07-23T23:53:19.706Z,100974.77
2018-07-23T23:55:45.695Z,100973.89
2018-07-23T23:58:11.705Z,100976.92
